Stations météo

réclame
Mon MeteoGroup
Achnagart, Grande-Bretagne (99191): Température de l'air & dewpoint: 09.07.2018 23:00:00 - 15.07.2018 23:00:00 (BST)Achnagart, Grande-Bretagne (99191): Quantités de précipitations: 09.07.2018 23:00:00 - 15.07.2018 23:00:00 (BST)
Date & Time tt [°C] td [°C] rr [mm]
15.07.2018 23:00:00 18,3 15,0 0,0
15.07.2018 22:00:00 17,6 15,6 0,0
15.07.2018 21:00:00 17,5 16,6 0,0
15.07.2018 20:00:00 17,9 16,5 0,2
15.07.2018 19:00:00 17,4 16,7 0,0
15.07.2018 18:00:00 18,0 17,2 0,0
15.07.2018 17:00:00 18,4 17,5 0,0
15.07.2018 16:00:00 18,9 17,3 0,2
15.07.2018 15:00:00 18,7 17,4 0,2
15.07.2018 14:00:00 19,4 16,4 0,0
15.07.2018 13:00:00 19,5 16,7 0,0
15.07.2018 12:00:00 19,1 17,2 0,0
15.07.2018 11:00:00 18,5 16,8 0,0
15.07.2018 10:00:00 18,0 17,5 0,2
15.07.2018 09:00:00 17,4 16,6 1,0
15.07.2018 08:00:00 17,7 16,9 0,0
15.07.2018 07:00:00 17,2 16,4 0,4
15.07.2018 06:00:00 17,4 15,9 0,0
15.07.2018 05:00:00 18,0 15,6 0,2
15.07.2018 04:00:00 17,7 15,7 0,0
15.07.2018 03:00:00 17,4 15,8 0,0
15.07.2018 02:00:00 18,3 15,4 0,0
15.07.2018 01:00:00 18,6 15,1 0,0
15.07.2018 00:00:00 19,1 15,3 0,0
14.07.2018 23:00:00 17,5 15,5 0,0
14.07.2018 22:00:00 18,1 14,9 0,0
14.07.2018 21:00:00 18,4 14,8 0,0
14.07.2018 20:00:00 18,5 15,0 0,0
14.07.2018 19:00:00 17,9 15,7 0,0
14.07.2018 18:00:00 16,9 15,7 0,0
14.07.2018 17:00:00 17,5 15,5 0,0
14.07.2018 16:00:00 18,5 14,4 0,2
14.07.2018 15:00:00 19,7 13,7 0,0
14.07.2018 14:00:00 19,7 13,5 0,0
14.07.2018 13:00:00 20,0 12,6 0,0
14.07.2018 12:00:00 19,2 11,5 0,0
14.07.2018 11:00:00 19,2 11,2 0,0
14.07.2018 10:00:00 18,6 11,2 0,0
14.07.2018 09:00:00 18,3 11,4 0,0
14.07.2018 08:00:00 17,6 11,0 0,0
14.07.2018 07:00:00 17,1 11,0 0,0
14.07.2018 06:00:00 17,0 10,5 0,0
14.07.2018 05:00:00 16,6 10,4 0,0
14.07.2018 04:00:00 16,8 10,3 0,0
14.07.2018 03:00:00 15,4 11,0 0,0
14.07.2018 02:00:00 11,4 10,2 0,0
14.07.2018 01:00:00 10,8 10,2 0,0
14.07.2018 00:00:00 12,3 10,9 0,0
13.07.2018 23:00:00 14,0 11,1 0,0
13.07.2018 22:00:00 16,1 11,0 0,0
13.07.2018 21:00:00 17,1 11,0 0,0
13.07.2018 20:00:00 18,2 11,5 0,0
13.07.2018 19:00:00 19,0 10,9 0,0
13.07.2018 18:00:00 18,9 11,5 0,0
13.07.2018 17:00:00 20,0 11,4 0,0
13.07.2018 16:00:00 20,7 12,7 0,0
13.07.2018 15:00:00 20,1 12,3 0,0
13.07.2018 14:00:00 18,6 10,7 0,0
13.07.2018 13:00:00 18,2 12,4 0,0
13.07.2018 12:00:00 17,8 12,4 0,0
13.07.2018 11:00:00 16,7 12,2 0,0
13.07.2018 10:00:00 16,7 13,5 0,0
13.07.2018 09:00:00 14,8 12,7 0,0
13.07.2018 08:00:00 13,8 12,6 0,0
13.07.2018 07:00:00 13,4 12,9 0,0
13.07.2018 06:00:00 13,1 12,7 0,0
13.07.2018 05:00:00 13,1 12,5 0,0
13.07.2018 04:00:00 13,2 12,7 0,0
13.07.2018 03:00:00 13,3 12,6 0,0
13.07.2018 02:00:00 13,4 12,4 0,0
13.07.2018 01:00:00 13,5 12,6 0,0
13.07.2018 00:00:00 13,6 12,2 0,0
12.07.2018 23:00:00 13,6 11,9 0,0
12.07.2018 22:00:00 14,1 11,2 0,0
12.07.2018 21:00:00 15,3 10,8 0,0
12.07.2018 20:00:00 16,8 11,5 0,0
12.07.2018 19:00:00 18,1 12,3 0,0
12.07.2018 18:00:00 18,0 12,9 0,0
12.07.2018 17:00:00 17,8 12,9 0,0
12.07.2018 16:00:00 18,4 13,2 0,0
12.07.2018 15:00:00 18,5 13,8 0,0
12.07.2018 14:00:00 18,6 13,7 0,0
12.07.2018 13:00:00 17,3 13,6 0,0
12.07.2018 12:00:00 16,7 13,3 0,0
12.07.2018 11:00:00 17,2 13,1 0,0
12.07.2018 10:00:00 16,6 13,4 0,0
12.07.2018 09:00:00 16,0 13,5 0,0
12.07.2018 08:00:00 - - -
12.07.2018 07:00:00 13,9 13,7 0,0
12.07.2018 06:00:00 13,4 13,2 0,0
12.07.2018 05:00:00 13,3 13,1 0,0
12.07.2018 04:00:00 13,4 13,1 0,0
12.07.2018 03:00:00 13,5 13,3 0,0
12.07.2018 02:00:00 - - 0,0
12.07.2018 01:00:00 - - 0,2
12.07.2018 00:00:00 - - 0,0
11.07.2018 23:00:00 - - -
11.07.2018 22:00:00 - - 0,2
11.07.2018 21:00:00 - - 0,0
11.07.2018 20:00:00 - - -
11.07.2018 19:00:00 - - 0,0
11.07.2018 18:00:00 - - 0,0
11.07.2018 17:00:00 - - 0,0
11.07.2018 16:00:00 - - 0,0
11.07.2018 15:00:00 - - 0,0
11.07.2018 14:00:00 - - -
11.07.2018 13:00:00 - - 0,0
11.07.2018 12:00:00 - - -
11.07.2018 11:00:00 - - 0,0
11.07.2018 10:00:00 - - 0,0
11.07.2018 09:00:00 - - 0,4
11.07.2018 08:00:00 - - 0,4
11.07.2018 07:00:00 - - 0,8
11.07.2018 06:00:00 - - 4,6
11.07.2018 05:00:00 - - -
11.07.2018 04:00:00 - - -
11.07.2018 03:00:00 - - 0,2
11.07.2018 02:00:00 - - -
11.07.2018 01:00:00 - - 1,0
11.07.2018 00:00:00 - - 0,8
10.07.2018 23:00:00 - - 0,8
10.07.2018 22:00:00 - - -
10.07.2018 21:00:00 - - 0,0
10.07.2018 20:00:00 - - -
10.07.2018 19:00:00 - - 1,0
10.07.2018 18:00:00 - - 0,0
10.07.2018 17:00:00 - - -
10.07.2018 16:00:00 - - 0,2
10.07.2018 15:00:00 - - 0,4
10.07.2018 14:00:00 - - -
10.07.2018 13:00:00 - - 0,2
10.07.2018 12:00:00 - - -
10.07.2018 11:00:00 - - 1,6
10.07.2018 10:00:00 - - -
10.07.2018 09:00:00 14,5 12,0 0,0
10.07.2018 08:00:00 14,1 11,9 0,0
10.07.2018 07:00:00 13,2 12,2 0,0
10.07.2018 06:00:00 12,5 11,9 0,0
10.07.2018 05:00:00 12,2 11,6 0,0
10.07.2018 04:00:00 11,7 11,2 0,0
10.07.2018 03:00:00 11,3 10,4 0,0
10.07.2018 02:00:00 12,5 11,4 0,0
10.07.2018 01:00:00 12,0 11,2 0,0
10.07.2018 00:00:00 12,0 10,2 0,0
09.07.2018 23:00:00 13,1 9,9 0,0

tt = Température de l'air
td = dewpoint
rr = Quantités de précipitations

stations d'obs. à proximité